sensor_id;sensor_type;location;lat;lon;timestamp;pressure;altitude;pressure_sealevel;temperature;humidity
54512;BME280;40419;47.438;19.026;2022-07-22T00:02:21;99951.78;;;25.86;33.57
54512;BME280;40419;47.438;19.026;2022-07-22T00:04:49;99952.09;;;25.84;33.52
54512;BME280;40419;47.438;19.026;2022-07-22T00:07:14;99952.63;;;25.86;33.34
54512;BME280;40419;47.438;19.026;2022-07-22T00:09:46;99949.84;;;25.86;33.54
54512;BME280;40419;47.438;19.026;2022-07-22T00:12:12;99947.69;;;25.83;33.17
54512;BME280;40419;47.438;19.026;2022-07-22T00:14:40;99938.63;;;25.77;33.15
54512;BME280;40419;47.438;19.026;2022-07-22T00:17:10;99934.22;;;25.76;32.56
54512;BME280;40419;47.438;19.026;2022-07-22T00:19:39;99946.84;;;25.82;32.30
54512;BME280;40419;47.438;19.026;2022-07-22T00:22:05;99943.13;;;25.73;33.21
54512;BME280;40419;47.438;19.026;2022-07-22T00:24:33;99942.19;;;25.64;33.11
54512;BME280;40419;47.438;19.026;2022-07-22T00:27:01;99943.28;;;25.63;32.83
54512;BME280;40419;47.438;19.026;2022-07-22T00:29:31;99940.31;;;25.59;33.14
54512;BME280;40419;47.438;19.026;2022-07-22T00:31:56;99941.56;;;25.67;32.97
54512;BME280;40419;47.438;19.026;2022-07-22T00:34:29;99940.00;;;25.61;32.85
54512;BME280;40419;47.438;19.026;2022-07-22T00:36:55;99947.13;;;25.67;32.52
54512;BME280;40419;47.438;19.026;2022-07-22T00:39:23;99940.53;;;25.63;32.38
54512;BME280;40419;47.438;19.026;2022-07-22T00:41:49;99946.88;;;25.63;32.79
54512;BME280;40419;47.438;19.026;2022-07-22T00:44:16;99946.56;;;25.65;32.87
54512;BME280;40419;47.438;19.026;2022-07-22T00:46:42;99945.00;;;25.59;32.54
54512;BME280;40419;47.438;19.026;2022-07-22T00:49:10;99942.84;;;25.56;32.79
54512;BME280;40419;47.438;19.026;2022-07-22T00:51:36;99938.88;;;25.62;32.76
54512;BME280;40419;47.438;19.026;2022-07-22T00:54:06;99940.53;;;25.63;33.23
54512;BME280;40419;47.438;19.026;2022-07-22T00:56:32;99939.47;;;25.59;33.32
54512;BME280;40419;47.438;19.026;2022-07-22T00:59:03;99942.34;;;25.54;33.25
54512;BME280;40419;47.438;19.026;2022-07-22T01:01:29;99946.28;;;25.28;34.49
54512;BME280;40419;47.438;19.026;2022-07-22T01:03:56;99950.72;;;24.62;37.05
54512;BME280;40419;47.438;19.026;2022-07-22T01:06:24;99951.78;;;24.66;35.98
54512;BME280;40419;47.438;19.026;2022-07-22T01:08:50;99960.03;;;24.71;36.41
54512;BME280;40419;47.438;19.026;2022-07-22T01:11:18;99956.81;;;24.88;34.47
54512;BME280;40419;47.438;19.026;2022-07-22T01:13:45;99955.47;;;25.24;34.16
54512;BME280;40419;47.438;19.026;2022-07-22T01:16:15;99964.84;;;25.28;34.16
54512;BME280;40419;47.438;19.026;2022-07-22T01:18:47;99960.97;;;25.29;34.51
54512;BME280;40419;47.438;19.026;2022-07-22T01:21:15;99960.91;;;25.34;33.66
54512;BME280;40419;47.438;19.026;2022-07-22T01:23:41;99961.56;;;25.26;34.79
54512;BME280;40419;47.438;19.026;2022-07-22T01:26:07;99962.69;;;25.25;34.59
54512;BME280;40419;47.438;19.026;2022-07-22T01:28:36;99962.69;;;25.25;34.03
54512;BME280;40419;47.438;19.026;2022-07-22T01:31:07;99957.19;;;25.20;34.60
54512;BME280;40419;47.438;19.026;2022-07-22T01:33:35;99945.69;;;25.12;34.58
54512;BME280;40419;47.438;19.026;2022-07-22T01:36:04;99964.59;;;25.05;34.21
54512;BME280;40419;47.438;19.026;2022-07-22T01:38:33;99951.28;;;25.07;35.00
54512;BME280;40419;47.438;19.026;2022-07-22T01:41:03;99951.34;;;25.02;34.98
54512;BME280;40419;47.438;19.026;2022-07-22T01:43:29;99955.22;;;25.01;34.61
54512;BME280;40419;47.438;19.026;2022-07-22T01:45:55;99956.44;;;24.95;34.62
54512;BME280;40419;47.438;19.026;2022-07-22T01:48:23;99958.97;;;24.91;35.32
54512;BME280;40419;47.438;19.026;2022-07-22T01:50:52;99957.31;;;24.90;34.19
54512;BME280;40419;47.438;19.026;2022-07-22T01:53:23;99957.41;;;24.85;34.63
54512;BME280;40419;47.438;19.026;2022-07-22T01:55:51;99954.84;;;24.89;34.18
54512;BME280;40419;47.438;19.026;2022-07-22T01:58:21;99954.84;;;24.89;34.28
54512;BME280;40419;47.438;19.026;2022-07-22T02:00:53;99956.63;;;24.80;34.62
54512;BME280;40419;47.438;19.026;2022-07-22T02:03:19;99952.63;;;24.67;35.10
54512;BME280;40419;47.438;19.026;2022-07-22T02:05:47;99954.94;;;24.59;34.38
54512;BME280;40419;47.438;19.026;2022-07-22T02:08:21;99952.47;;;24.58;34.56
54512;BME280;40419;47.438;19.026;2022-07-22T02:11:10;99957.78;;;24.49;36.07
54512;BME280;40419;47.438;19.026;2022-07-22T02:13:46;99959.94;;;24.28;36.41
54512;BME280;40419;47.438;19.026;2022-07-22T02:16:14;99959.38;;;24.26;36.87
54512;BME280;40419;47.438;19.026;2022-07-22T02:18:40;99966.44;;;24.13;37.00
54512;BME280;40419;47.438;19.026;2022-07-22T02:21:08;99968.03;;;24.19;36.20
54512;BME280;40419;47.438;19.026;2022-07-22T02:23:33;99979.97;;;24.15;36.08
54512;BME280;40419;47.438;19.026;2022-07-22T02:25:59;99973.38;;;24.11;36.06
54512;BME280;40419;47.438;19.026;2022-07-22T02:28:27;99977.22;;;24.15;35.64
54512;BME280;40419;47.438;19.026;2022-07-22T02:30:52;99985.22;;;24.16;36.84
54512;BME280;40419;47.438;19.026;2022-07-22T02:33:19;99986.81;;;23.93;37.37
54512;BME280;40419;47.438;19.026;2022-07-22T02:35:47;99981.81;;;23.95;36.79
54512;BME280;40419;47.438;19.026;2022-07-22T02:38:12;99972.69;;;23.95;36.90
54512;BME280;40419;47.438;19.026;2022-07-22T02:40:43;99972.63;;;24.00;35.96
54512;BME280;40419;47.438;19.026;2022-07-22T02:43:10;99980.06;;;23.65;37.90
54512;BME280;40419;47.438;19.026;2022-07-22T02:45:41;99979.13;;;23.80;36.71
54512;BME280;40419;47.438;19.026;2022-07-22T02:48:09;99983.34;;;23.72;37.35
54512;BME280;40419;47.438;19.026;2022-07-22T02:50:47;99973.22;;;23.97;36.20
54512;BME280;40419;47.438;19.026;2022-07-22T02:53:17;99973.75;;;23.99;35.45
54512;BME280;40419;47.438;19.026;2022-07-22T02:55:43;99973.09;;;23.73;37.68
54512;BME280;40419;47.438;19.026;2022-07-22T02:58:09;99980.03;;;23.70;37.36
54512;BME280;40419;47.438;19.026;2022-07-22T03:00:39;99973.59;;;23.85;37.12
54512;BME280;40419;47.438;19.026;2022-07-22T03:03:05;99987.09;;;23.92;36.05
54512;BME280;40419;47.438;19.026;2022-07-22T03:05:32;99982.38;;;23.92;36.59
54512;BME280;40419;47.438;19.026;2022-07-22T03:08:14;99987.69;;;23.88;38.47
54512;BME280;40419;47.438;19.026;2022-07-22T03:10:39;99979.72;;;23.37;39.81
54512;BME280;40419;47.438;19.026;2022-07-22T03:13:07;99977.88;;;23.17;39.95
54512;BME280;40419;47.438;19.026;2022-07-22T03:15:35;99979.38;;;23.44;38.69
54512;BME280;40419;47.438;19.026;2022-07-22T03:18:00;99974.31;;;23.56;36.49
54512;BME280;40419;47.438;19.026;2022-07-22T03:20:29;99982.75;;;23.75;36.66
54512;BME280;40419;47.438;19.026;2022-07-22T03:22:59;99978.00;;;23.86;36.32
54512;BME280;40419;47.438;19.026;2022-07-22T03:25:25;99990.88;;;24.01;36.47
54512;BME280;40419;47.438;19.026;2022-07-22T03:27:51;99988.94;;;24.01;37.48
54512;BME280;40419;47.438;19.026;2022-07-22T03:30:20;99990.16;;;23.85;38.35
54512;BME280;40419;47.438;19.026;2022-07-22T03:32:48;99989.19;;;23.65;39.78
54512;BME280;40419;47.438;19.026;2022-07-22T03:35:15;99990.09;;;23.56;40.88
54512;BME280;40419;47.438;19.026;2022-07-22T03:37:46;99995.84;;;23.99;39.58
54512;BME280;40419;47.438;19.026;2022-07-22T03:40:13;99997.66;;;24.19;38.81
54512;BME280;40419;47.438;19.026;2022-07-22T03:42:43;99997.22;;;24.06;39.92
54512;BME280;40419;47.438;19.026;2022-07-22T03:45:09;99998.53;;;24.14;41.89
54512;BME280;40419;47.438;19.026;2022-07-22T03:47:40;99996.38;;;23.11;43.82
54512;BME280;40419;47.438;19.026;2022-07-22T03:50:07;99991.56;;;23.38;42.89
54512;BME280;40419;47.438;19.026;2022-07-22T03:52:36;99998.72;;;23.44;43.44
54512;BME280;40419;47.438;19.026;2022-07-22T03:55:11;99991.19;;;23.54;43.36
54512;BME280;40419;47.438;19.026;2022-07-22T03:57:43;99994.47;;;23.57;43.19
54512;BME280;40419;47.438;19.026;2022-07-22T04:00:17;99997.56;;;23.50;43.92
54512;BME280;40419;47.438;19.026;2022-07-22T04:02:47;100002.25;;;23.99;44.17
54512;BME280;40419;47.438;19.026;2022-07-22T04:05:21;100007.91;;;24.13;44.14
54512;BME280;40419;47.438;19.026;2022-07-22T04:07:51;100005.16;;;24.42;41.97
54512;BME280;40419;47.438;19.026;2022-07-22T04:10:22;99996.69;;;24.87;41.64
54512;BME280;40419;47.438;19.026;2022-07-22T04:12:50;99993.38;;;24.61;42.84
54512;BME280;40419;47.438;19.026;2022-07-22T04:15:30;99991.44;;;24.86;42.57
54512;BME280;40419;47.438;19.026;2022-07-22T04:17:56;99997.47;;;24.05;43.41
54512;BME280;40419;47.438;19.026;2022-07-22T04:20:22;99994.84;;;23.89;44.21
54512;BME280;40419;47.438;19.026;2022-07-22T04:23:19;99995.31;;;24.31;42.88
54512;BME280;40419;47.438;19.026;2022-07-22T04:25:46;99998.69;;;24.23;42.90
54512;BME280;40419;47.438;19.026;2022-07-22T04:28:12;99998.84;;;24.08;42.98
54512;BME280;40419;47.438;19.026;2022-07-22T04:30:43;99997.56;;;24.29;43.98
54512;BME280;40419;47.438;19.026;2022-07-22T04:33:12;100005.28;;;24.62;43.46
54512;BME280;40419;47.438;19.026;2022-07-22T04:35:38;100004.56;;;24.75;44.94
54512;BME280;40419;47.438;19.026;2022-07-22T04:38:10;99993.63;;;24.65;43.96
54512;BME280;40419;47.438;19.026;2022-07-22T04:40:41;99994.09;;;24.72;44.41
54512;BME280;40419;47.438;19.026;2022-07-22T04:43:10;99995.38;;;25.04;41.99
54512;BME280;40419;47.438;19.026;2022-07-22T04:45:38;99990.38;;;25.25;40.93
54512;BME280;40419;47.438;19.026;2022-07-22T04:48:05;99983.75;;;25.45;40.12
54512;BME280;40419;47.438;19.026;2022-07-22T04:50:39;99987.75;;;25.58;40.32
54512;BME280;40419;47.438;19.026;2022-07-22T04:53:09;99987.78;;;25.53;42.13
54512;BME280;40419;47.438;19.026;2022-07-22T04:55:37;99988.25;;;25.60;42.89
54512;BME280;40419;47.438;19.026;2022-07-22T04:58:05;99977.53;;;25.34;44.16
54512;BME280;40419;47.438;19.026;2022-07-22T05:00:35;99987.22;;;25.37;45.42
54512;BME280;40419;47.438;19.026;2022-07-22T05:03:02;99995.75;;;25.59;44.58
54512;BME280;40419;47.438;19.026;2022-07-22T05:05:28;99986.53;;;25.64;43.94
54512;BME280;40419;47.438;19.026;2022-07-22T05:07:53;99990.72;;;25.61;46.10
54512;BME280;40419;47.438;19.026;2022-07-22T05:10:19;99995.59;;;25.70;45.05
54512;BME280;40419;47.438;19.026;2022-07-22T05:12:47;99994.22;;;26.05;43.65
54512;BME280;40419;47.438;19.026;2022-07-22T05:15:13;99998.28;;;26.27;42.04
54512;BME280;40419;47.438;19.026;2022-07-22T05:17:41;99998.72;;;26.34;42.52
54512;BME280;40419;47.438;19.026;2022-07-22T05:20:20;100000.81;;;26.42;42.41
54512;BME280;40419;47.438;19.026;2022-07-22T05:22:47;100003.91;;;26.55;40.03
54512;BME280;40419;47.438;19.026;2022-07-22T05:25:21;100000.81;;;26.56;39.06
54512;BME280;40419;47.438;19.026;2022-07-22T05:27:54;100006.66;;;26.41;41.82
54512;BME280;40419;47.438;19.026;2022-07-22T05:30:43;100012.00;;;26.51;42.13
54512;BME280;40419;47.438;19.026;2022-07-22T05:33:14;100020.25;;;26.56;43.41
54512;BME280;40419;47.438;19.026;2022-07-22T05:36:20;100011.47;;;26.35;43.90
54512;BME280;40419;47.438;19.026;2022-07-22T05:38:50;100009.88;;;26.62;41.05
54512;BME280;40419;47.438;19.026;2022-07-22T05:41:16;100020.22;;;26.89;39.00
54512;BME280;40419;47.438;19.026;2022-07-22T05:43:47;100014.00;;;27.20;38.04
54512;BME280;40419;47.438;19.026;2022-07-22T05:46:12;100006.50;;;26.93;35.71
54512;BME280;40419;47.438;19.026;2022-07-22T05:48:41;100016.66;;;27.25;37.77
54512;BME280;40419;47.438;19.026;2022-07-22T05:51:14;100017.53;;;27.12;35.01
54512;BME280;40419;47.438;19.026;2022-07-22T05:53:43;100016.69;;;27.11;33.04
54512;BME280;40419;47.438;19.026;2022-07-22T05:56:10;100022.03;;;27.08;31.85
54512;BME280;40419;47.438;19.026;2022-07-22T05:58:41;100022.56;;;26.96;32.97
54512;BME280;40419;47.438;19.026;2022-07-22T06:01:13;100024.63;;;27.04;33.41
54512;BME280;40419;47.438;19.026;2022-07-22T06:03:39;100026.06;;;27.15;34.78
54512;BME280;40419;47.438;19.026;2022-07-22T06:06:09;100021.09;;;27.26;33.07
54512;BME280;40419;47.438;19.026;2022-07-22T06:08:37;100019.25;;;27.35;34.66
54512;BME280;40419;47.438;19.026;2022-07-22T06:11:06;100019.34;;;27.44;34.49
54512;BME280;40419;47.438;19.026;2022-07-22T06:13:35;100018.53;;;27.44;35.31
54512;BME280;40419;47.438;19.026;2022-07-22T06:16:01;100020.72;;;27.33;33.56
54512;BME280;40419;47.438;19.026;2022-07-22T06:18:29;100025.00;;;27.53;34.00
54512;BME280;40419;47.438;19.026;2022-07-22T06:20:55;100033.22;;;27.58;33.85
54512;BME280;40419;47.438;19.026;2022-07-22T06:23:26;100026.84;;;27.57;34.27
54512;BME280;40419;47.438;19.026;2022-07-22T06:25:51;100029.63;;;27.57;34.42
54512;BME280;40419;47.438;19.026;2022-07-22T06:28:26;100029.13;;;27.55;32.37
54512;BME280;40419;47.438;19.026;2022-07-22T06:30:52;100034.38;;;27.57;30.88
54512;BME280;40419;47.438;19.026;2022-07-22T06:33:19;100028.13;;;27.74;33.39
54512;BME280;40419;47.438;19.026;2022-07-22T06:35:50;100037.38;;;27.83;31.44
54512;BME280;40419;47.438;19.026;2022-07-22T06:38:16;100033.41;;;28.21;31.66
54512;BME280;40419;47.438;19.026;2022-07-22T06:41:01;100026.38;;;28.46;30.62
54512;BME280;40419;47.438;19.026;2022-07-22T06:43:54;100020.78;;;28.15;30.09
54512;BME280;40419;47.438;19.026;2022-07-22T06:46:32;100022.69;;;27.91;29.34
54512;BME280;40419;47.438;19.026;2022-07-22T06:49:01;100020.53;;;27.88;30.28
54512;BME280;40419;47.438;19.026;2022-07-22T06:51:33;100027.13;;;27.92;29.86
54512;BME280;40419;47.438;19.026;2022-07-22T06:54:00;100021.91;;;28.14;30.39
54512;BME280;40419;47.438;19.026;2022-07-22T06:56:26;100029.38;;;28.58;29.83
54512;BME280;40419;47.438;19.026;2022-07-22T06:58:55;100026.41;;;28.55;30.61
54512;BME280;40419;47.438;19.026;2022-07-22T07:01:26;100023.38;;;28.65;30.81
54512;BME280;40419;47.438;19.026;2022-07-22T07:03:53;100024.31;;;28.92;29.62
54512;BME280;40419;47.438;19.026;2022-07-22T07:06:22;100028.44;;;29.03;29.06
54512;BME280;40419;47.438;19.026;2022-07-22T07:08:58;100022.09;;;28.71;29.18
54512;BME280;40419;47.438;19.026;2022-07-22T07:11:26;100027.22;;;28.78;28.75
54512;BME280;40419;47.438;19.026;2022-07-22T07:13:52;100022.78;;;28.77;29.11
54512;BME280;40419;47.438;19.026;2022-07-22T07:16:19;100022.97;;;28.49;29.70
54512;BME280;40419;47.438;19.026;2022-07-22T07:18:45;100023.94;;;28.53;29.94
54512;BME280;40419;47.438;19.026;2022-07-22T07:21:15;100021.31;;;28.79;29.01
54512;BME280;40419;47.438;19.026;2022-07-22T07:23:43;100029.59;;;29.02;28.88
54512;BME280;40419;47.438;19.026;2022-07-22T07:26:11;100020.88;;;28.95;29.48
54512;BME280;40419;47.438;19.026;2022-07-22T07:28:39;100018.63;;;29.06;28.56
54512;BME280;40419;47.438;19.026;2022-07-22T07:31:17;100018.06;;;29.44;27.73
54512;BME280;40419;47.438;19.026;2022-07-22T07:33:44;100023.34;;;29.80;28.13
54512;BME280;40419;47.438;19.026;2022-07-22T07:36:12;100004.00;;;29.93;26.43
54512;BME280;40419;47.438;19.026;2022-07-22T07:38:44;100013.50;;;30.09;27.29
54512;BME280;40419;47.438;19.026;2022-07-22T07:41:17;100021.84;;;29.48;26.54
54512;BME280;40419;47.438;19.026;2022-07-22T07:43:49;100009.22;;;29.77;28.27
54512;BME280;40419;47.438;19.026;2022-07-22T07:46:17;100016.63;;;29.90;27.50
54512;BME280;40419;47.438;19.026;2022-07-22T07:48:47;100021.50;;;30.19;27.96
54512;BME280;40419;47.438;19.026;2022-07-22T07:51:15;100010.88;;;30.13;27.14
54512;BME280;40419;47.438;19.026;2022-07-22T07:53:45;100016.44;;;30.13;26.54
54512;BME280;40419;47.438;19.026;2022-07-22T07:56:11;100005.41;;;30.34;26.90
54512;BME280;40419;47.438;19.026;2022-07-22T07:58:37;100008.88;;;30.22;27.13
54512;BME280;40419;47.438;19.026;2022-07-22T08:01:05;100018.91;;;30.23;26.26
54512;BME280;40419;47.438;19.026;2022-07-22T08:03:33;100015.31;;;30.79;26.18
54512;BME280;40419;47.438;19.026;2022-07-22T08:05:59;100019.16;;;30.56;24.29
54512;BME280;40419;47.438;19.026;2022-07-22T08:08:28;100007.38;;;30.33;25.20
54512;BME280;40419;47.438;19.026;2022-07-22T08:10:55;100003.81;;;30.71;25.50
54512;BME280;40419;47.438;19.026;2022-07-22T08:13:38;100015.09;;;30.84;27.29
54512;BME280;40419;47.438;19.026;2022-07-22T08:16:29;100007.53;;;30.84;25.43
54512;BME280;40419;47.438;19.026;2022-07-22T08:18:55;100006.94;;;30.79;25.17
54512;BME280;40419;47.438;19.026;2022-07-22T08:21:20;100002.38;;;31.04;24.68
54512;BME280;40419;47.438;19.026;2022-07-22T08:23:56;100005.00;;;31.09;24.46
54512;BME280;40419;47.438;19.026;2022-07-22T08:26:24;100009.91;;;31.12;23.49
54512;BME280;40419;47.438;19.026;2022-07-22T08:28:54;100004.69;;;30.93;23.26
54512;BME280;40419;47.438;19.026;2022-07-22T08:31:22;100007.56;;;31.14;24.17
54512;BME280;40419;47.438;19.026;2022-07-22T08:33:51;100007.91;;;31.13;25.14
54512;BME280;40419;47.438;19.026;2022-07-22T08:36:18;100006.63;;;31.31;24.80
54512;BME280;40419;47.438;19.026;2022-07-22T08:38:45;99997.53;;;31.64;24.28
54512;BME280;40419;47.438;19.026;2022-07-22T08:41:13;100005.13;;;31.85;24.36
54512;BME280;40419;47.438;19.026;2022-07-22T08:43:40;100007.25;;;31.67;23.49
54512;BME280;40419;47.438;19.026;2022-07-22T08:46:10;100005.50;;;31.32;23.86
54512;BME280;40419;47.438;19.026;2022-07-22T08:48:56;100006.28;;;31.84;23.26
54512;BME280;40419;47.438;19.026;2022-07-22T08:51:55;100000.16;;;31.69;22.91
54512;BME280;40419;47.438;19.026;2022-07-22T08:54:26;100008.13;;;31.58;23.24
54512;BME280;40419;47.438;19.026;2022-07-22T08:56:56;100004.81;;;31.98;23.38
54512;BME280;40419;47.438;19.026;2022-07-22T08:59:25;100008.91;;;32.01;22.72
54512;BME280;40419;47.438;19.026;2022-07-22T09:02:11;100004.69;;;31.95;23.41
54512;BME280;40419;47.438;19.026;2022-07-22T09:04:51;100002.41;;;32.09;23.67
54512;BME280;40419;47.438;19.026;2022-07-22T09:09:53;99997.47;;;32.27;22.85
54512;BME280;40419;47.438;19.026;2022-07-22T09:12:52;100000.50;;;32.22;22.42
54512;BME280;40419;47.438;19.026;2022-07-22T09:15:47;99994.56;;;32.36;22.61
54512;BME280;40419;47.438;19.026;2022-07-22T09:18:53;99992.78;;;32.77;22.20
54512;BME280;40419;47.438;19.026;2022-07-22T09:21:29;99989.16;;;32.19;22.80
54512;BME280;40419;47.438;19.026;2022-07-22T09:24:33;99981.38;;;32.37;23.25
54512;BME280;40419;47.438;19.026;2022-07-22T09:27:31;99987.47;;;32.39;23.02
54512;BME280;40419;47.438;19.026;2022-07-22T09:30:40;99980.25;;;32.62;22.93
54512;BME280;40419;47.438;19.026;2022-07-22T09:33:08;99991.50;;;32.87;23.97
54512;BME280;40419;47.438;19.026;2022-07-22T09:36:01;99985.56;;;32.76;22.96
54512;BME280;40419;47.438;19.026;2022-07-22T09:38:30;99990.81;;;33.02;23.50
54512;BME280;40419;47.438;19.026;2022-07-22T09:40:58;99992.66;;;32.86;22.03
54512;BME280;40419;47.438;19.026;2022-07-22T09:43:24;99989.41;;;33.21;22.17
54512;BME280;40419;47.438;19.026;2022-07-22T09:45:57;99985.06;;;33.11;21.97
54512;BME280;40419;47.438;19.026;2022-07-22T09:48:42;99977.31;;;33.45;22.01
54512;BME280;40419;47.438;19.026;2022-07-22T09:51:14;99978.44;;;33.56;22.84
54512;BME280;40419;47.438;19.026;2022-07-22T09:53:58;99981.56;;;33.27;22.67
54512;BME280;40419;47.438;19.026;2022-07-22T09:56:29;99977.66;;;33.44;21.99
54512;BME280;40419;47.438;19.026;2022-07-22T09:58:58;99971.72;;;33.33;22.68
54512;BME280;40419;47.438;19.026;2022-07-22T10:01:35;99981.78;;;32.97;22.50
54512;BME280;40419;47.438;19.026;2022-07-22T10:04:03;99963.56;;;33.28;23.17
54512;BME280;40419;47.438;19.026;2022-07-22T10:06:33;99965.97;;;33.42;22.69
54512;BME280;40419;47.438;19.026;2022-07-22T10:08:59;99967.59;;;33.55;23.32
54512;BME280;40419;47.438;19.026;2022-07-22T10:11:26;99964.25;;;33.65;22.47
54512;BME280;40419;47.438;19.026;2022-07-22T10:13:55;99965.97;;;33.82;23.00
54512;BME280;40419;47.438;19.026;2022-07-22T10:16:20;99958.66;;;33.94;23.79
54512;BME280;40419;47.438;19.026;2022-07-22T10:18:51;99968.88;;;33.86;23.98
54512;BME280;40419;47.438;19.026;2022-07-22T10:21:31;99959.09;;;33.80;23.80
54512;BME280;40419;47.438;19.026;2022-07-22T10:24:14;99952.03;;;33.86;23.65
54512;BME280;40419;47.438;19.026;2022-07-22T10:27:02;99960.81;;;33.84;23.76
54512;BME280;40419;47.438;19.026;2022-07-22T10:29:29;99958.81;;;33.85;23.65
54512;BME280;40419;47.438;19.026;2022-07-22T10:37:36;99947.28;;;33.74;23.76
54512;BME280;40419;47.438;19.026;2022-07-22T10:40:17;99951.69;;;33.87;24.06
54512;BME280;40419;47.438;19.026;2022-07-22T10:45:45;99939.91;;;34.26;22.92
54512;BME280;40419;47.438;19.026;2022-07-22T10:48:23;99936.13;;;34.06;23.60
54512;BME280;40419;47.438;19.026;2022-07-22T10:51:13;99928.22;;;34.40;23.06
54512;BME280;40419;47.438;19.026;2022-07-22T10:56:30;99925.13;;;34.29;23.50
54512;BME280;40419;47.438;19.026;2022-07-22T11:01:28;99930.84;;;34.49;23.91
54512;BME280;40419;47.438;19.026;2022-07-22T11:03:55;99925.38;;;34.72;24.29
54512;BME280;40419;47.438;19.026;2022-07-22T11:06:23;99931.53;;;34.61;23.81
54512;BME280;40419;47.438;19.026;2022-07-22T11:08:54;99929.56;;;34.78;24.60
54512;BME280;40419;47.438;19.026;2022-07-22T11:11:35;99917.59;;;34.81;24.83
54512;BME280;40419;47.438;19.026;2022-07-22T11:14:14;99912.84;;;34.69;25.31
54512;BME280;40419;47.438;19.026;2022-07-22T11:16:41;99917.31;;;34.86;26.61
54512;BME280;40419;47.438;19.026;2022-07-22T11:19:07;99920.56;;;34.88;24.63
54512;BME280;40419;47.438;19.026;2022-07-22T11:21:34;99918.66;;;34.92;25.69
54512;BME280;40419;47.438;19.026;2022-07-22T11:24:03;99914.19;;;35.07;25.34
54512;BME280;40419;47.438;19.026;2022-07-22T11:26:44;99917.19;;;34.99;25.93
54512;BME280;40419;47.438;19.026;2022-07-22T11:31:43;99903.53;;;34.81;25.77
54512;BME280;40419;47.438;19.026;2022-07-22T11:34:10;99904.25;;;34.78;26.56
54512;BME280;40419;47.438;19.026;2022-07-22T11:36:41;99902.22;;;34.94;26.05
54512;BME280;40419;47.438;19.026;2022-07-22T11:39:08;99898.06;;;34.88;26.16
54512;BME280;40419;47.438;19.026;2022-07-22T11:41:34;99890.28;;;34.82;26.65
54512;BME280;40419;47.438;19.026;2022-07-22T11:44:00;99899.94;;;35.00;26.42
54512;BME280;40419;47.438;19.026;2022-07-22T11:46:28;99891.66;;;34.88;26.17
54512;BME280;40419;47.438;19.026;2022-07-22T11:48:59;99884.38;;;34.87;26.01
54512;BME280;40419;47.438;19.026;2022-07-22T11:51:32;99873.31;;;34.78;25.90
54512;BME280;40419;47.438;19.026;2022-07-22T11:53:59;99872.09;;;35.14;25.81
54512;BME280;40419;47.438;19.026;2022-07-22T11:56:25;99875.75;;;34.95;26.39
54512;BME280;40419;47.438;19.026;2022-07-22T11:58:52;99869.00;;;35.00;26.68
54512;BME280;40419;47.438;19.026;2022-07-22T12:01:25;99864.03;;;34.93;25.89
54512;BME280;40419;47.438;19.026;2022-07-22T12:03:53;99865.13;;;34.89;26.43
54512;BME280;40419;47.438;19.026;2022-07-22T12:06:23;99860.19;;;35.02;26.72
54512;BME280;40419;47.438;19.026;2022-07-22T12:08:54;99859.28;;;34.97;26.07
54512;BME280;40419;47.438;19.026;2022-07-22T12:11:24;99864.53;;;34.79;27.00
54512;BME280;40419;47.438;19.026;2022-07-22T12:13:53;99863.16;;;34.89;26.27
54512;BME280;40419;47.438;19.026;2022-07-22T12:16:29;99860.03;;;34.94;26.50
54512;BME280;40419;47.438;19.026;2022-07-22T12:19:03;99846.72;;;34.91;26.39
54512;BME280;40419;47.438;19.026;2022-07-22T12:21:34;99843.47;;;34.89;26.97
54512;BME280;40419;47.438;19.026;2022-07-22T12:24:07;99852.28;;;34.88;27.21
54512;BME280;40419;47.438;19.026;2022-07-22T12:29:21;99835.66;;;35.38;25.29
54512;BME280;40419;47.438;19.026;2022-07-22T12:32:01;99840.16;;;35.42;25.56
54512;BME280;40419;47.438;19.026;2022-07-22T12:34:38;99832.81;;;35.18;25.82
54512;BME280;40419;47.438;19.026;2022-07-22T12:39:59;99830.13;;;35.25;26.36
54512;BME280;40419;47.438;19.026;2022-07-22T12:42:44;99834.69;;;35.30;26.13
54512;BME280;40419;47.438;19.026;2022-07-22T12:45:16;99821.47;;;35.14;26.14
54512;BME280;40419;47.438;19.026;2022-07-22T12:47:51;99821.19;;;35.20;25.99
54512;BME280;40419;47.438;19.026;2022-07-22T12:53:03;99820.06;;;35.24;25.42
54512;BME280;40419;47.438;19.026;2022-07-22T12:55:33;99813.72;;;35.27;25.73
54512;BME280;40419;47.438;19.026;2022-07-22T12:58:04;99806.28;;;35.19;24.75
54512;BME280;40419;47.438;19.026;2022-07-22T13:00:35;99811.72;;;35.08;25.81
54512;BME280;40419;47.438;19.026;2022-07-22T13:03:04;99807.34;;;35.11;25.54
54512;BME280;40419;47.438;19.026;2022-07-22T13:05:29;99811.91;;;35.19;25.77
54512;BME280;40419;47.438;19.026;2022-07-22T13:07:55;99806.00;;;35.24;25.89
54512;BME280;40419;47.438;19.026;2022-07-22T13:10:22;99801.88;;;35.38;25.49
54512;BME280;40419;47.438;19.026;2022-07-22T13:12:51;99803.63;;;35.46;25.40
54512;BME280;40419;47.438;19.026;2022-07-22T13:15:24;99797.06;;;35.61;24.66
54512;BME280;40419;47.438;19.026;2022-07-22T13:17:50;99790.50;;;35.54;25.09
54512;BME280;40419;47.438;19.026;2022-07-22T13:20:18;99782.84;;;35.31;25.28
54512;BME280;40419;47.438;19.026;2022-07-22T13:22:47;99800.56;;;35.55;25.12
54512;BME280;40419;47.438;19.026;2022-07-22T13:25:13;99793.13;;;35.43;26.75
54512;BME280;40419;47.438;19.026;2022-07-22T13:27:39;99780.97;;;35.19;26.23
54512;BME280;40419;47.438;19.026;2022-07-22T13:30:08;99785.84;;;35.22;25.41
54512;BME280;40419;47.438;19.026;2022-07-22T13:32:36;99786.22;;;35.01;24.94
54512;BME280;40419;47.438;19.026;2022-07-22T13:35:04;99769.72;;;35.00;26.21